Terminal Aerodrome Forecast
Issued by NWS Tallahassee, FL

Home | Current Version | Previous Version | Text Only | Print | Product List | Glossary On
Versions: 1 2 3 4 5 6 7 8 9 10 11 12 13 14 15 16
000
FTUS42 KTAE 241300 AAA
TAFTLH
TAF AMD
KTLH 241301Z 2413/2512 33004KT P6SM FEW040 SCT070
     FM241800 18007KT P6SM SCT040
     FM250800 00000KT 1SM BR BKN005=

USA.gov is the U.S. government's official web portal to all federal, state and local government web resources and services.